This is the latest recevied weather packets stored in our database for station/object KG7MRB. If no packets are shown the sender has not sent any weather packets the latest 10 day(s).
| Time | Temp. | Humidity | Pressure | Rain* | Wind** | Luminosity | Snow |
|---|---|---|---|---|---|---|---|
| 1777707934 | 12.22° C | 89% | 1034.8 hPa | 0 mm | - | 0 W/m² | - |
| 1777707630 | 12.78° C | 88% | 1034.5 hPa | 0 mm | - | 0 W/m² | - |
| 1777707326 | 12.78° C | 88% | 1034.5 hPa | 0 mm | - | 0 W/m² | - |
| 1777707024 | 12.78° C | 87% | 1034.5 hPa | 0 mm | - | 0 W/m² | - |
| 1777706721 | 12.78° C | 87% | 1034.4 hPa | 0 mm | - | 0 W/m² | - |
| 1777706419 | 12.78° C | 87% | 1034.3 hPa | 0 mm | - | 0 W/m² | - |
| 1777706116 | 12.78° C | 87% | 1034.5 hPa | 0 mm | - | 0 W/m² | - |
| 1777705815 | 12.78° C | 87% | 1034.3 hPa | 0 mm | - | 0 W/m² | - |
| 1777705512 | 12.78° C | 87% | 1034.5 hPa | 0 mm | - | 0 W/m² | - |
| 1777705210 | 13.33° C | 86% | 1034.5 hPa | 0 mm | - | 0 W/m² | - |
| 1777704908 | 13.33° C | 85% | 1034.4 hPa | 0 mm | - | 0 W/m² | - |
| 1777704606 | 13.33° C | 84% | 1034.5 hPa | 0 mm | - | 0 W/m² | - |
| 1777704304 | 13.33° C | 84% | 1034.5 hPa | 0 mm | - | 0 W/m² | - |
| 1777704000 | 13.33° C | 84% | 1034.4 hPa | 0 mm | - | 0 W/m² | - |
| 1777703699 | 13.89° C | 84% | 1034.3 hPa | 0 mm | - | 0 W/m² | - |
| 1777703396 | 13.89° C | 83% | 1034.4 hPa | 0 mm | - | 0 W/m² | - |
| 1777703093 | 13.89° C | 83% | 1034.2 hPa | 0 mm | - | 0 W/m² | - |
| 1777702791 | 13.89° C | 82% | 1034.2 hPa | 0 mm | - | 0 W/m² | - |
| 1777702489 | 14.44° C | 81% | 1033.9 hPa | 0 mm | - | 0 W/m² | - |
| 1777702184 | 15° C | 80% | 1034.1 hPa | 0 mm | - | 0 W/m² | - |
| 1777701880 | 15° C | 81% | 1034.2 hPa | 0 mm | - | 0 W/m² | - |
| 1777701577 | 15° C | 79% | 1034.1 hPa | 0 mm | - | 0 W/m² | - |
| 1777701275 | 15.56° C | 76% | 1034 hPa | 0 mm | - | 0 W/m² | - |
| 1777700969 | 16.67° C | 70% | 1034.2 hPa | 0 mm | - | 0 W/m² | - |
| 1777700667 | 16.67° C | 70% | 1034.2 hPa | 0 mm | - | 0 W/m² | - |
* Rain latest hour (hover to see other rain measurements)
** Current wind speed in m/s (hover to see current wind gust speed)